sensor_id;sensor_type;location;lat;lon;timestamp;pressure;altitude;pressure_sealevel;temperature;humidity
70815;BME280;58428;49.478;10.986;2023-12-20T00:00:29;98392.75;;;6.73;100.00
70815;BME280;58428;49.478;10.986;2023-12-20T00:02:57;98391.84;;;6.78;100.00
70815;BME280;58428;49.478;10.986;2023-12-20T00:05:30;98389.06;;;6.69;100.00
70815;BME280;58428;49.478;10.986;2023-12-20T00:08:06;98395.66;;;6.63;100.00
70815;BME280;58428;49.478;10.986;2023-12-20T00:10:38;98394.38;;;6.61;100.00
70815;BME280;58428;49.478;10.986;2023-12-20T00:13:12;98396.34;;;6.56;100.00
70815;BME280;58428;49.478;10.986;2023-12-20T00:15:37;98396.66;;;6.54;100.00
70815;BME280;58428;49.478;10.986;2023-12-20T00:18:03;98387.78;;;6.54;100.00
70815;BME280;58428;49.478;10.986;2023-12-20T00:20:29;98385.72;;;6.51;100.00
70815;BME280;58428;49.478;10.986;2023-12-20T00:22:56;98371.59;;;6.45;100.00
70815;BME280;58428;49.478;10.986;2023-12-20T00:25:23;98373.66;;;6.48;100.00
70815;BME280;58428;49.478;10.986;2023-12-20T00:27:51;98371.59;;;6.45;100.00
70815;BME280;58428;49.478;10.986;2023-12-20T00:30:17;98367.91;;;6.41;100.00
70815;BME280;58428;49.478;10.986;2023-12-20T00:32:43;98368.41;;;6.43;100.00
70815;BME280;58428;49.478;10.986;2023-12-20T00:35:14;98356.56;;;6.44;100.00
70815;BME280;58428;49.478;10.986;2023-12-20T00:37:41;98363.72;;;6.49;100.00
70815;BME280;58428;49.478;10.986;2023-12-20T00:40:12;98363.13;;;6.52;100.00
70815;BME280;58428;49.478;10.986;2023-12-20T00:42:37;98363.72;;;6.49;100.00
70815;BME280;58428;49.478;10.986;2023-12-20T00:45:03;98366.28;;;6.54;100.00
70815;BME280;58428;49.478;10.986;2023-12-20T00:47:31;98346.06;;;6.56;100.00
70815;BME280;58428;49.478;10.986;2023-12-20T00:49:58;98345.91;;;6.53;100.00
70815;BME280;58428;49.478;10.986;2023-12-20T00:52:23;98345.59;;;6.54;100.00
70815;BME280;58428;49.478;10.986;2023-12-20T00:54:50;98355.34;;;6.50;100.00
70815;BME280;58428;49.478;10.986;2023-12-20T00:57:15;98348.50;;;6.44;100.00
70815;BME280;58428;49.478;10.986;2023-12-20T00:59:41;98351.78;;;6.41;100.00
70815;BME280;58428;49.478;10.986;2023-12-20T01:02:07;98352.97;;;6.49;100.00
70815;BME280;58428;49.478;10.986;2023-12-20T01:04:34;98352.00;;;6.45;100.00
70815;BME280;58428;49.478;10.986;2023-12-20T01:06:59;98348.19;;;6.46;100.00
70815;BME280;58428;49.478;10.986;2023-12-20T01:09:28;98342.94;;;6.41;100.00
70815;BME280;58428;49.478;10.986;2023-12-20T01:11:53;98339.63;;;6.44;100.00
70815;BME280;58428;49.478;10.986;2023-12-20T01:14:19;98329.81;;;6.39;100.00
70815;BME280;58428;49.478;10.986;2023-12-20T01:16:44;98339.63;;;6.44;100.00
70815;BME280;58428;49.478;10.986;2023-12-20T01:19:10;98338.34;;;6.41;100.00
70815;BME280;58428;49.478;10.986;2023-12-20T01:21:36;98326.50;;;6.42;100.00
70815;BME280;58428;49.478;10.986;2023-12-20T01:24:07;98324.44;;;6.39;100.00
70815;BME280;58428;49.478;10.986;2023-12-20T01:26:36;98324.53;;;6.34;100.00
70815;BME280;58428;49.478;10.986;2023-12-20T01:29:01;98320.84;;;6.30;100.00
70815;BME280;58428;49.478;10.986;2023-12-20T01:31:28;98318.66;;;6.32;100.00
70815;BME280;58428;49.478;10.986;2023-12-20T01:33:54;98317.56;;;6.33;100.00
70815;BME280;58428;49.478;10.986;2023-12-20T01:36:19;98318.66;;;6.32;100.00
70815;BME280;58428;49.478;10.986;2023-12-20T01:38:45;98311.81;;;6.26;100.00
70815;BME280;58428;49.478;10.986;2023-12-20T01:41:11;98313.41;;;6.27;100.00
70815;BME280;58428;49.478;10.986;2023-12-20T01:43:38;98315.28;;;6.27;100.00
70815;BME280;58428;49.478;10.986;2023-12-20T01:46:11;98317.38;;;6.30;100.00
70815;BME280;58428;49.478;10.986;2023-12-20T01:48:37;98316.38;;;6.26;100.00
70815;BME280;58428;49.478;10.986;2023-12-20T01:51:05;98321.56;;;6.22;100.00
70815;BME280;58428;49.478;10.986;2023-12-20T01:53:57;98320.47;;;6.23;100.00
70815;BME280;58428;49.478;10.986;2023-12-20T01:56:23;98312.91;;;6.12;100.00
70815;BME280;58428;49.478;10.986;2023-12-20T01:58:49;98318.00;;;6.14;100.00
70815;BME280;58428;49.478;10.986;2023-12-20T02:01:15;98315.09;;;6.10;100.00
70815;BME280;58428;49.478;10.986;2023-12-20T02:03:41;98319.69;;;6.10;100.00
70815;BME280;58428;49.478;10.986;2023-12-20T02:06:08;98313.91;;;6.03;100.00
70815;BME280;58428;49.478;10.986;2023-12-20T02:08:44;98320.28;;;6.07;100.00
70815;BME280;58428;49.478;10.986;2023-12-20T02:11:10;98321.75;;;5.99;100.00
70815;BME280;58428;49.478;10.986;2023-12-20T02:13:36;98319.78;;;5.91;100.00
70815;BME280;58428;49.478;10.986;2023-12-20T02:16:01;98320.78;;;5.95;100.00
70815;BME280;58428;49.478;10.986;2023-12-20T02:18:27;98307.75;;;5.89;100.00
70815;BME280;58428;49.478;10.986;2023-12-20T02:21:04;98307.84;;;5.84;100.00
70815;BME280;58428;49.478;10.986;2023-12-20T02:23:29;98315.59;;;5.86;100.00
70815;BME280;58428;49.478;10.986;2023-12-20T02:26:03;98305.16;;;5.84;100.00
70815;BME280;58428;49.478;10.986;2023-12-20T02:28:29;98304.66;;;5.82;100.00
70815;BME280;58428;49.478;10.986;2023-12-20T02:30:56;98302.78;;;5.83;100.00
70815;BME280;58428;49.478;10.986;2023-12-20T02:33:21;98306.34;;;5.78;100.00
70815;BME280;58428;49.478;10.986;2023-12-20T02:35:47;98300.56;;;5.71;100.00
70815;BME280;58428;49.478;10.986;2023-12-20T02:38:13;98306.31;;;5.65;100.00
70815;BME280;58428;49.478;10.986;2023-12-20T02:40:40;98305.63;;;5.59;100.00
70815;BME280;58428;49.478;10.986;2023-12-20T02:43:06;98303.13;;;5.63;100.00
70815;BME280;58428;49.478;10.986;2023-12-20T02:45:32;98310.16;;;5.59;100.00
70815;BME280;58428;49.478;10.986;2023-12-20T02:47:59;98311.56;;;5.56;100.00
70815;BME280;58428;49.478;10.986;2023-12-20T02:50:24;98309.56;;;5.48;100.00
70815;BME280;58428;49.478;10.986;2023-12-20T02:52:50;98311.81;;;5.42;100.00
70815;BME280;58428;49.478;10.986;2023-12-20T02:55:17;98310.75;;;5.43;100.00
70815;BME280;58428;49.478;10.986;2023-12-20T02:57:43;98311.44;;;5.35;100.00
70815;BME280;58428;49.478;10.986;2023-12-20T03:00:09;98302.59;;;5.34;100.00
70815;BME280;58428;49.478;10.986;2023-12-20T03:02:36;98303.09;;;5.36;100.00
70815;BME280;58428;49.478;10.986;2023-12-20T03:05:02;98304.97;;;5.36;100.00
70815;BME280;58428;49.478;10.986;2023-12-20T03:07:28;98304.25;;;5.30;100.00
70815;BME280;58428;49.478;10.986;2023-12-20T03:09:54;98311.22;;;5.31;100.00
70815;BME280;58428;49.478;10.986;2023-12-20T03:12:22;98298.53;;;5.37;100.00
70815;BME280;58428;49.478;10.986;2023-12-20T03:14:52;98302.78;;;5.38;100.00
70815;BME280;58428;49.478;10.986;2023-12-20T03:17:17;98305.56;;;5.33;100.00
70815;BME280;58428;49.478;10.986;2023-12-20T03:19:44;98305.06;;;5.31;100.00
70815;BME280;58428;49.478;10.986;2023-12-20T03:22:11;98296.03;;;5.27;100.00
70815;BME280;58428;49.478;10.986;2023-12-20T03:24:36;98305.16;;;5.26;100.00
70815;BME280;58428;49.478;10.986;2023-12-20T03:27:02;98304.06;;;5.27;100.00
70815;BME280;58428;49.478;10.986;2023-12-20T03:29:27;98311.78;;;5.28;100.00
70815;BME280;58428;49.478;10.986;2023-12-20T03:31:52;98311.00;;;5.28;100.00
70815;BME280;58428;49.478;10.986;2023-12-20T03:34:18;98315.38;;;5.24;100.00
70815;BME280;58428;49.478;10.986;2023-12-20T03:36:44;98315.88;;;5.26;100.00
70815;BME280;58428;49.478;10.986;2023-12-20T03:39:12;98310.59;;;5.21;100.00
70815;BME280;58428;49.478;10.986;2023-12-20T03:41:40;98305.25;;;5.21;100.00
70815;BME280;58428;49.478;10.986;2023-12-20T03:44:05;98316.16;;;5.24;100.00
70815;BME280;58428;49.478;10.986;2023-12-20T03:46:34;98317.47;;;5.27;100.00
70815;BME280;58428;49.478;10.986;2023-12-20T03:48:59;98324.59;;;5.18;100.00
70815;BME280;58428;49.478;10.986;2023-12-20T03:51:25;98315.25;;;5.15;100.00
70815;BME280;58428;49.478;10.986;2023-12-20T03:53:51;98327.06;;;5.14;100.00
70815;BME280;58428;49.478;10.986;2023-12-20T03:56:18;98319.84;;;5.15;100.00
70815;BME280;58428;49.478;10.986;2023-12-20T03:58:43;98321.34;;;5.21;100.00
70815;BME280;58428;49.478;10.986;2023-12-20T04:01:10;98315.38;;;5.24;100.00
70815;BME280;58428;49.478;10.986;2023-12-20T04:03:39;98328.00;;;5.23;100.00
70815;BME280;58428;49.478;10.986;2023-12-20T04:06:05;98321.50;;;5.11;100.00
70815;BME280;58428;49.478;10.986;2023-12-20T04:08:32;98328.22;;;5.09;100.00
70815;BME280;58428;49.478;10.986;2023-12-20T04:11:00;98324.09;;;5.16;100.00
70815;BME280;58428;49.478;10.986;2023-12-20T04:13:30;98324.59;;;5.18;100.00
70815;BME280;58428;49.478;10.986;2023-12-20T04:15:57;98321.53;;;5.24;100.00
70815;BME280;58428;49.478;10.986;2023-12-20T04:18:22;98317.97;;;5.29;100.00
70815;BME280;58428;49.478;10.986;2023-12-20T04:20:48;98321.66;;;5.33;100.00
70815;BME280;58428;49.478;10.986;2023-12-20T04:23:17;98326.53;;;5.31;100.00
70815;BME280;58428;49.478;10.986;2023-12-20T04:26:05;98323.63;;;5.27;100.00
70815;BME280;58428;49.478;10.986;2023-12-20T04:28:30;98326.88;;;5.24;100.00
70815;BME280;58428;49.478;10.986;2023-12-20T04:31:00;98314.06;;;5.21;100.00
70815;BME280;58428;49.478;10.986;2023-12-20T04:33:48;98318.66;;;5.21;100.00
70815;BME280;58428;49.478;10.986;2023-12-20T04:36:19;98317.22;;;5.10;100.00
70815;BME280;58428;49.478;10.986;2023-12-20T04:38:46;98320.78;;;5.06;100.00
70815;BME280;58428;49.478;10.986;2023-12-20T04:41:11;98319.69;;;5.07;100.00
70815;BME280;58428;49.478;10.986;2023-12-20T04:43:41;98317.72;;;5.12;100.00
70815;BME280;58428;49.478;10.986;2023-12-20T04:46:06;98314.03;;;5.08;100.00
70815;BME280;58428;49.478;10.986;2023-12-20T04:48:32;98322.47;;;5.02;100.00
70815;BME280;58428;49.478;10.986;2023-12-20T04:51:00;98319.34;;;4.95;100.00
70815;BME280;58428;49.478;10.986;2023-12-20T04:53:27;98323.81;;;4.99;100.00
70815;BME280;58428;49.478;10.986;2023-12-20T04:55:52;98323.53;;;5.01;100.00
70815;BME280;58428;49.478;10.986;2023-12-20T04:58:18;98331.66;;;4.96;100.00
70815;BME280;58428;49.478;10.986;2023-12-20T05:00:44;98333.84;;;4.94;100.00
70815;BME280;58428;49.478;10.986;2023-12-20T05:03:11;98330.66;;;4.92;100.00
70815;BME280;58428;49.478;10.986;2023-12-20T05:05:39;98328.69;;;4.97;100.00
70815;BME280;58428;49.478;10.986;2023-12-20T05:08:04;98338.38;;;4.93;100.00
70815;BME280;58428;49.478;10.986;2023-12-20T05:10:31;98345.25;;;4.99;100.00
70815;BME280;58428;49.478;10.986;2023-12-20T05:12:57;98345.41;;;4.89;100.00
70815;BME280;58428;49.478;10.986;2023-12-20T05:15:25;98356.75;;;4.86;100.00
70815;BME280;58428;49.478;10.986;2023-12-20T05:17:53;98357.16;;;4.93;100.00
70815;BME280;58428;49.478;10.986;2023-12-20T05:20:18;98356.09;;;4.94;100.00
70815;BME280;58428;49.478;10.986;2023-12-20T05:22:44;98347.44;;;4.97;100.00
70815;BME280;58428;49.478;10.986;2023-12-20T05:25:10;98354.91;;;5.00;100.00
70815;BME280;58428;49.478;10.986;2023-12-20T05:27:37;98358.25;;;4.92;100.00
70815;BME280;58428;49.478;10.986;2023-12-20T05:30:02;98352.91;;;4.92;100.00
70815;BME280;58428;49.478;10.986;2023-12-20T05:32:29;98369.19;;;4.96;100.00
70815;BME280;58428;49.478;10.986;2023-12-20T05:34:55;98372.06;;;4.99;100.00
70815;BME280;58428;49.478;10.986;2023-12-20T05:37:20;98368.38;;;4.95;100.00
70815;BME280;58428;49.478;10.986;2023-12-20T05:39:46;98358.25;;;4.92;100.00
70815;BME280;58428;49.478;10.986;2023-12-20T05:42:13;98360.94;;;4.92;100.00
70815;BME280;58428;49.478;10.986;2023-12-20T05:44:39;98370.88;;;4.92;100.00
70815;BME280;58428;49.478;10.986;2023-12-20T05:47:05;98366.81;;;4.94;100.00
70815;BME280;58428;49.478;10.986;2023-12-20T05:49:48;98362.97;;;5.00;100.00
70815;BME280;58428;49.478;10.986;2023-12-20T05:52:15;98373.97;;;4.99;100.00
70815;BME280;58428;49.478;10.986;2023-12-20T05:54:43;98378.09;;;4.91;100.00
70815;BME280;58428;49.478;10.986;2023-12-20T05:57:08;98382.88;;;4.94;100.00
70815;BME280;58428;49.478;10.986;2023-12-20T05:59:34;98387.66;;;4.97;100.00
70815;BME280;58428;49.478;10.986;2023-12-20T06:01:59;98387.47;;;4.94;100.00
70815;BME280;58428;49.478;10.986;2023-12-20T06:04:25;98394.03;;;5.01;100.00
70815;BME280;58428;49.478;10.986;2023-12-20T06:06:50;98381.94;;;5.04;100.00
70815;BME280;58428;49.478;10.986;2023-12-20T06:09:15;98391.84;;;5.03;100.00
70815;BME280;58428;49.478;10.986;2023-12-20T06:11:44;98389.53;;;4.97;100.00
70815;BME280;58428;49.478;10.986;2023-12-20T06:14:11;98401.94;;;4.93;100.00
70815;BME280;58428;49.478;10.986;2023-12-20T06:16:38;98407.00;;;4.94;100.00
70815;BME280;58428;49.478;10.986;2023-12-20T06:19:04;98404.63;;;4.93;100.00
70815;BME280;58428;49.478;10.986;2023-12-20T06:21:34;98417.66;;;4.99;100.00
70815;BME280;58428;49.478;10.986;2023-12-20T06:26:53;98427.81;;;5.02;100.00
70815;BME280;58428;49.478;10.986;2023-12-20T06:29:22;98428.81;;;5.06;100.00
70815;BME280;58428;49.478;10.986;2023-12-20T06:34:15;98427.44;;;5.09;100.00
70815;BME280;58428;49.478;10.986;2023-12-20T06:40:08;98437.22;;;5.18;100.00
70815;BME280;58428;49.478;10.986;2023-12-20T06:43:15;98436.44;;;5.17;100.00
70815;BME280;58428;49.478;10.986;2023-12-20T06:45:41;98436.84;;;5.24;100.00
70815;BME280;58428;49.478;10.986;2023-12-20T06:48:19;98443.31;;;5.23;100.00
70815;BME280;58428;49.478;10.986;2023-12-20T06:50:45;98446.00;;;5.23;100.00
70815;BME280;58428;49.478;10.986;2023-12-20T06:53:11;98441.91;;;5.26;100.00
70815;BME280;58428;49.478;10.986;2023-12-20T06:55:42;98446.56;;;5.20;100.00
70815;BME280;58428;49.478;10.986;2023-12-20T06:58:13;98451.91;;;5.20;100.00
70815;BME280;58428;49.478;10.986;2023-12-20T07:00:38;98453.75;;;5.25;100.00
70815;BME280;58428;49.478;10.986;2023-12-20T07:03:09;98456.44;;;5.25;100.00
70815;BME280;58428;49.478;10.986;2023-12-20T07:05:34;98465.00;;;5.27;100.00
70815;BME280;58428;49.478;10.986;2023-12-20T07:08:03;98479.69;;;5.29;100.00
70815;BME280;58428;49.478;10.986;2023-12-20T07:10:28;98490.06;;;5.36;100.00
70815;BME280;58428;49.478;10.986;2023-12-20T07:12:54;98488.31;;;5.45;100.00
70815;BME280;58428;49.478;10.986;2023-12-20T07:15:21;98491.78;;;5.45;100.00
70815;BME280;58428;49.478;10.986;2023-12-20T07:17:54;98494.97;;;5.47;100.00
70815;BME280;58428;49.478;10.986;2023-12-20T07:20:53;98497.09;;;5.50;100.00
70815;BME280;58428;49.478;10.986;2023-12-20T07:23:48;98501.34;;;5.51;100.00
70815;BME280;58428;49.478;10.986;2023-12-20T07:26:18;98510.63;;;5.58;100.00
70815;BME280;58428;49.478;10.986;2023-12-20T07:28:52;98512.75;;;5.61;100.00
70815;BME280;58428;49.478;10.986;2023-12-20T07:34:37;98501.81;;;5.58;100.00
70815;BME280;58428;49.478;10.986;2023-12-20T07:37:12;98492.38;;;5.60;100.00
70815;BME280;58428;49.478;10.986;2023-12-20T07:39:49;98500.19;;;5.57;100.00
70815;BME280;58428;49.478;10.986;2023-12-20T07:42:17;98503.97;;;5.56;100.00
70815;BME280;58428;49.478;10.986;2023-12-20T07:45:28;98503.09;;;5.60;100.00
70815;BME280;58428;49.478;10.986;2023-12-20T07:48:22;98507.16;;;5.58;100.00
70815;BME280;58428;49.478;10.986;2023-12-20T07:50:50;98505.00;;;5.60;100.00
70815;BME280;58428;49.478;10.986;2023-12-20T07:53:21;98504.72;;;5.61;100.00
70815;BME280;58428;49.478;10.986;2023-12-20T07:55:50;98513.16;;;5.68;100.00
70815;BME280;58428;49.478;10.986;2023-12-20T07:58:21;98513.16;;;5.68;100.00
70815;BME280;58428;49.478;10.986;2023-12-20T08:01:01;98525.94;;;5.76;100.00
70815;BME280;58428;49.478;10.986;2023-12-20T08:03:32;98527.84;;;5.76;100.00
70815;BME280;58428;49.478;10.986;2023-12-20T08:05:58;98526.97;;;5.80;100.00
70815;BME280;58428;49.478;10.986;2023-12-20T08:08:41;98526.69;;;5.82;100.00
70815;BME280;58428;49.478;10.986;2023-12-20T08:11:16;98523.78;;;5.78;100.00
70815;BME280;58428;49.478;10.986;2023-12-20T08:16:47;98518.34;;;5.83;100.00
70815;BME280;58428;49.478;10.986;2023-12-20T08:19:23;98514.47;;;5.89;100.00
70815;BME280;58428;49.478;10.986;2023-12-20T08:21:49;98535.16;;;5.88;100.00
70815;BME280;58428;49.478;10.986;2023-12-20T08:24:35;98525.06;;;5.81;100.00
70815;BME280;58428;49.478;10.986;2023-12-20T08:27:29;98512.81;;;5.75;100.00
70815;BME280;58428;49.478;10.986;2023-12-20T08:30:36;98531.66;;;5.70;100.00
70815;BME280;58428;49.478;10.986;2023-12-20T08:33:25;98533.00;;;5.72;100.00
70815;BME280;58428;49.478;10.986;2023-12-20T08:35:53;98532.28;;;5.85;100.00
70815;BME280;58428;49.478;10.986;2023-12-20T08:38:23;98525.63;;;5.96;100.00
70815;BME280;58428;49.478;10.986;2023-12-20T08:40:54;98520.19;;;6.01;100.00
70815;BME280;58428;49.478;10.986;2023-12-20T08:43:53;98520.28;;;6.09;100.00
70815;BME280;58428;49.478;10.986;2023-12-20T08:46:30;98522.13;;;6.14;100.00
70815;BME280;58428;49.478;10.986;2023-12-20T08:49:00;98524.44;;;6.02;100.00
70815;BME280;58428;49.478;10.986;2023-12-20T08:51:29;98533.84;;;5.86;100.00
70815;BME280;58428;49.478;10.986;2023-12-20T08:54:16;98524.00;;;5.82;100.00
70815;BME280;58428;49.478;10.986;2023-12-20T08:56:47;98517.97;;;5.71;100.00
70815;BME280;58428;49.478;10.986;2023-12-20T08:59:15;98515.94;;;5.63;100.00
70815;BME280;58428;49.478;10.986;2023-12-20T09:02:01;98514.34;;;5.62;100.00
70815;BME280;58428;49.478;10.986;2023-12-20T09:04:32;98515.50;;;5.56;100.00
70815;BME280;58428;49.478;10.986;2023-12-20T09:07:28;98513.25;;;5.45;100.00
70815;BME280;58428;49.478;10.986;2023-12-20T09:09:57;98512.00;;;5.38;100.00
70815;BME280;58428;49.478;10.986;2023-12-20T09:12:28;98516.31;;;5.39;100.00
70815;BME280;58428;49.478;10.986;2023-12-20T09:14:57;98525.53;;;5.33;100.00
70815;BME280;58428;49.478;10.986;2023-12-20T09:17:46;98531.16;;;5.31;100.00
70815;BME280;58428;49.478;10.986;2023-12-20T09:20:25;98527.09;;;5.34;100.00
70815;BME280;58428;49.478;10.986;2023-12-20T09:22:54;98524.06;;;5.40;100.00
70815;BME280;58428;49.478;10.986;2023-12-20T09:25:25;98525.28;;;5.47;100.00
70815;BME280;58428;49.478;10.986;2023-12-20T09:28:02;98523.63;;;5.51;100.00
70815;BME280;58428;49.478;10.986;2023-12-20T09:31:00;98520.38;;;5.54;100.00
70815;BME280;58428;49.478;10.986;2023-12-20T09:33:46;98530.81;;;5.56;100.00
70815;BME280;58428;49.478;10.986;2023-12-20T09:36:20;98531.72;;;5.65;100.00
70815;BME280;58428;49.478;10.986;2023-12-20T09:38:51;98540.50;;;5.70;100.00
70815;BME280;58428;49.478;10.986;2023-12-20T09:41:32;98548.22;;;5.77;100.00
70815;BME280;58428;49.478;10.986;2023-12-20T09:44:10;98545.91;;;5.88;100.00
70815;BME280;58428;49.478;10.986;2023-12-20T09:47:02;98546.69;;;5.89;100.00
70815;BME280;58428;49.478;10.986;2023-12-20T09:49:28;98547.59;;;5.98;100.00
70815;BME280;58428;49.478;10.986;2023-12-20T09:51:58;98542.56;;;5.96;100.00
70815;BME280;58428;49.478;10.986;2023-12-20T09:54:32;98542.16;;;6.03;100.00
70815;BME280;58428;49.478;10.986;2023-12-20T10:00:06;98544.22;;;6.24;100.00
70815;BME280;58428;49.478;10.986;2023-12-20T10:02:34;98547.44;;;6.39;100.00
70815;BME280;58428;49.478;10.986;2023-12-20T10:05:10;98547.88;;;6.59;100.00
70815;BME280;58428;49.478;10.986;2023-12-20T10:07:43;98540.81;;;6.77;100.00
70815;BME280;58428;49.478;10.986;2023-12-20T10:10:26;98530.19;;;6.85;100.00
70815;BME280;58428;49.478;10.986;2023-12-20T10:21:52;98524.31;;;6.83;100.00
70815;BME280;58428;49.478;10.986;2023-12-20T10:24:32;98515.91;;;6.85;100.00
70815;BME280;58428;49.478;10.986;2023-12-20T10:27:06;98520.41;;;6.89;100.00
70815;BME280;58428;49.478;10.986;2023-12-20T10:29:54;98512.53;;;6.79;100.00
70815;BME280;58428;49.478;10.986;2023-12-20T10:35:27;98504.78;;;6.91;100.00
70815;BME280;58428;49.478;10.986;2023-12-20T10:37:59;98500.69;;;6.94;100.00
70815;BME280;58428;49.478;10.986;2023-12-20T10:41:05;98497.41;;;6.83;100.00
70815;BME280;58428;49.478;10.986;2023-12-20T10:43:45;98492.41;;;6.77;100.00
70815;BME280;58428;49.478;10.986;2023-12-20T10:46:19;98492.63;;;6.67;100.00
70815;BME280;58428;49.478;10.986;2023-12-20T10:49:07;98500.41;;;6.68;100.00
70815;BME280;58428;49.478;10.986;2023-12-20T10:52:02;98492.41;;;6.63;100.00
70815;BME280;58428;49.478;10.986;2023-12-20T10:54:35;98491.84;;;6.66;100.00
70815;BME280;58428;49.478;10.986;2023-12-20T10:57:06;98491.34;;;6.64;100.00
70815;BME280;58428;49.478;10.986;2023-12-20T10:59:50;98489.84;;;6.72;100.00
70815;BME280;58428;49.478;10.986;2023-12-20T11:02:34;98480.59;;;6.78;100.00
70815;BME280;58428;49.478;10.986;2023-12-20T11:08:46;98474.19;;;6.87;100.00
70815;BME280;58428;49.478;10.986;2023-12-20T11:11:34;98457.75;;;6.89;100.00
70815;BME280;58428;49.478;10.986;2023-12-20T11:14:43;98471.91;;;6.81;100.00
70815;BME280;58428;49.478;10.986;2023-12-20T11:17:27;98477.00;;;6.69;100.00
70815;BME280;58428;49.478;10.986;2023-12-20T11:22:36;98475.78;;;6.61;100.00
70815;BME280;58428;49.478;10.986;2023-12-20T11:25:07;98483.78;;;6.66;100.00
70815;BME280;58428;49.478;10.986;2023-12-20T11:28:10;98475.63;;;6.58;100.00
70815;BME280;58428;49.478;10.986;2023-12-20T11:30:53;98464.88;;;6.58;100.00
70815;BME280;58428;49.478;10.986;2023-12-20T11:33:41;98454.19;;;6.53;100.00
70815;BME280;58428;49.478;10.986;2023-12-20T11:36:19;98454.19;;;6.66;100.00
70815;BME280;58428;49.478;10.986;2023-12-20T11:38:58;98444.22;;;6.80;100.00
70815;BME280;58428;49.478;10.986;2023-12-20T11:45:02;98454.19;;;6.93;100.00
70815;BME280;58428;49.478;10.986;2023-12-20T11:47:47;98451.31;;;6.76;100.00
70815;BME280;58428;49.478;10.986;2023-12-20T11:50:27;98457.47;;;6.63;100.00
70815;BME280;58428;49.478;10.986;2023-12-20T11:53:01;98455.41;;;6.47;100.00
70815;BME280;58428;49.478;10.986;2023-12-20T11:55:36;98449.81;;;6.44;100.00
70815;BME280;58428;49.478;10.986;2023-12-20T11:58:07;98445.53;;;6.43;100.00
70815;BME280;58428;49.478;10.986;2023-12-20T12:00:40;98443.25;;;6.50;100.00
70815;BME280;58428;49.478;10.986;2023-12-20T12:03:42;98446.44;;;6.52;100.00
70815;BME280;58428;49.478;10.986;2023-12-20T12:06:34;98448.81;;;6.53;100.00
70815;BME280;58428;49.478;10.986;2023-12-20T12:09:25;98446.22;;;6.48;100.00
70815;BME280;58428;49.478;10.986;2023-12-20T12:11:51;98446.63;;;6.55;100.00
70815;BME280;58428;49.478;10.986;2023-12-20T12:14:35;98451.31;;;6.63;100.00
70815;BME280;58428;49.478;10.986;2023-12-20T12:17:20;98445.13;;;6.76;100.00
70815;BME280;58428;49.478;10.986;2023-12-20T12:20:14;98431.78;;;6.84;100.00
70815;BME280;58428;49.478;10.986;2023-12-20T12:22:43;98433.06;;;6.73;100.00
70815;BME280;58428;49.478;10.986;2023-12-20T12:28:34;98427.31;;;6.80;100.00
70815;BME280;58428;49.478;10.986;2023-12-20T12:31:20;98428.09;;;6.80;100.00
70815;BME280;58428;49.478;10.986;2023-12-20T12:34:08;98429.38;;;6.83;100.00
70815;BME280;58428;49.478;10.986;2023-12-20T12:36:43;98426.28;;;6.89;100.00
70815;BME280;58428;49.478;10.986;2023-12-20T12:39:31;98438.81;;;6.94;100.00
70815;BME280;58428;49.478;10.986;2023-12-20T12:42:11;98428.94;;;7.02;100.00
70815;BME280;58428;49.478;10.986;2023-12-20T12:44:42;98440.00;;;7.01;100.00
70815;BME280;58428;49.478;10.986;2023-12-20T12:47:19;98429.75;;;7.03;100.00
70815;BME280;58428;49.478;10.986;2023-12-20T12:50:02;98425.44;;;7.02;100.00
70815;BME280;58428;49.478;10.986;2023-12-20T12:52:35;98426.06;;;6.99;100.00
70815;BME280;58428;49.478;10.986;2023-12-20T12:55:03;98422.88;;;6.97;100.00
70815;BME280;58428;49.478;10.986;2023-12-20T12:57:30;98431.53;;;6.94;100.00
70815;BME280;58428;49.478;10.986;2023-12-20T12:59:55;98426.06;;;6.99;100.00
70815;BME280;58428;49.478;10.986;2023-12-20T13:02:34;98426.38;;;6.97;100.00
70815;BME280;58428;49.478;10.986;2023-12-20T13:05:03;98423.28;;;6.91;100.00
70815;BME280;58428;49.478;10.986;2023-12-20T13:07:33;98419.44;;;6.83;100.00
70815;BME280;58428;49.478;10.986;2023-12-20T13:10:02;98429.22;;;6.66;100.00
70815;BME280;58428;49.478;10.986;2023-12-20T13:12:42;98417.16;;;6.50;100.00
70815;BME280;58428;49.478;10.986;2023-12-20T13:15:21;98423.06;;;6.39;100.00
70815;BME280;58428;49.478;10.986;2023-12-20T13:18:05;98409.72;;;6.34;100.00
70815;BME280;58428;49.478;10.986;2023-12-20T13:20:46;98426.31;;;6.36;100.00
70815;BME280;58428;49.478;10.986;2023-12-20T13:23:36;98425.91;;;6.42;100.00
70815;BME280;58428;49.478;10.986;2023-12-20T13:26:06;98431.19;;;6.60;100.00
70815;BME280;58428;49.478;10.986;2023-12-20T13:31:29;98416.06;;;6.78;100.00
70815;BME280;58428;49.478;10.986;2023-12-20T13:34:09;98419.25;;;6.80;100.00
70815;BME280;58428;49.478;10.986;2023-12-20T13:37:05;98427.31;;;6.80;100.00
70815;BME280;58428;49.478;10.986;2023-12-20T13:39:44;98417.06;;;6.68;100.00
70815;BME280;58428;49.478;10.986;2023-12-20T13:42:12;98421.66;;;6.55;100.00
70815;BME280;58428;49.478;10.986;2023-12-20T13:44:40;98424.03;;;6.56;100.00
70815;BME280;58428;49.478;10.986;2023-12-20T13:47:07;98419.47;;;6.57;100.00
70815;BME280;58428;49.478;10.986;2023-12-20T13:49:41;98430.00;;;6.53;100.00
70815;BME280;58428;49.478;10.986;2023-12-20T13:52:09;98424.06;;;6.43;100.00
70815;BME280;58428;49.478;10.986;2023-12-20T13:54:37;98421.44;;;6.38;100.00
70815;BME280;58428;49.478;10.986;2023-12-20T13:57:29;98422.06;;;6.35;100.00
70815;BME280;58428;49.478;10.986;2023-12-20T13:59:59;98425.63;;;6.30;100.00
70815;BME280;58428;49.478;10.986;2023-12-20T14:02:41;98422.44;;;6.28;100.00